createdAt,value
2023-02-05T00:00:39.192Z,31.38
2023-02-05T00:03:06.027Z,32.13
2023-02-05T00:05:32.716Z,26.73
2023-02-05T00:07:59.466Z,27.85
2023-02-05T00:10:25.919Z,25.70
2023-02-05T00:12:52.399Z,25.75
2023-02-05T00:15:18.849Z,27.30
2023-02-05T00:17:45.276Z,29.57
2023-02-05T00:20:11.927Z,28.65
2023-02-05T00:22:38.343Z,24.33
2023-02-05T00:25:05.179Z,32.22
2023-02-05T00:27:33.356Z,23.98
2023-02-05T00:29:59.849Z,34.97
2023-02-05T00:32:26.261Z,26.92
2023-02-05T00:34:52.675Z,27.27
2023-02-05T00:37:19.177Z,36.20
2023-02-05T00:39:45.568Z,23.55
2023-02-05T00:42:12.023Z,22.83
2023-02-05T00:44:38.433Z,26.20
2023-02-05T00:47:04.904Z,23.80
2023-02-05T00:49:31.434Z,30.35
2023-02-05T00:51:57.869Z,28.25
2023-02-05T00:54:24.452Z,30.43
2023-02-05T00:56:50.932Z,26.60
2023-02-05T00:59:17.384Z,32.65
2023-02-05T01:01:43.880Z,27.20
2023-02-05T01:04:10.370Z,30.48
2023-02-05T01:06:36.910Z,27.87
2023-02-05T01:09:03.524Z,32.83
2023-02-05T01:11:29.978Z,29.80
2023-02-05T01:13:56.645Z,29.80
2023-02-05T01:16:23.216Z,30.13
2023-02-05T01:18:49.728Z,29.30
2023-02-05T01:21:16.313Z,31.40
2023-02-05T01:23:42.724Z,30.58
2023-02-05T01:26:09.221Z,28.42
2023-02-05T01:28:35.708Z,31.25
2023-02-05T01:31:02.184Z,32.53
2023-02-05T01:33:28.665Z,33.28
2023-02-05T01:35:55.145Z,29.25
2023-02-05T01:38:21.627Z,29.65
2023-02-05T01:40:48.064Z,32.90
2023-02-05T01:43:17.702Z,28.53
2023-02-05T01:45:55.509Z,28.35
2023-02-05T01:48:29.525Z,33.17
2023-02-05T01:51:01.507Z,33.13
2023-02-05T01:53:31.545Z,35.88
2023-02-05T01:56:03.038Z,25.40
2023-02-05T01:58:37.428Z,31.27
2023-02-05T02:01:04.072Z,26.83
2023-02-05T02:03:31.458Z,33.13
2023-02-05T02:05:58.141Z,30.13
2023-02-05T02:08:24.762Z,26.47
2023-02-05T02:10:54.815Z,27.80
2023-02-05T02:13:23.576Z,28.83
2023-02-05T02:15:51.253Z,29.30
2023-02-05T02:18:28.334Z,26.92
2023-02-05T02:21:33.921Z,27.40
2023-02-05T02:24:34.170Z,23.88
2023-02-05T02:27:07.004Z,27.40
2023-02-05T02:29:53.798Z,24.40
2023-02-05T02:32:35.281Z,20.70
2023-02-05T02:35:10.849Z,23.63
2023-02-05T02:37:44.351Z,26.80
2023-02-05T02:40:26.838Z,23.42
2023-02-05T02:43:17.097Z,25.52
2023-02-05T02:45:51.500Z,21.33
2023-02-05T02:48:22.358Z,18.97
2023-02-05T02:50:52.960Z,18.73
2023-02-05T02:53:24.018Z,21.67
2023-02-05T02:55:52.894Z,17.85
2023-02-05T02:58:47.405Z,21.27
2023-02-05T03:01:16.451Z,24.47
2023-02-05T03:03:50.119Z,25.98
2023-02-05T03:06:17.616Z,17.98
2023-02-05T03:08:59.827Z,19.10
2023-02-05T03:11:27.043Z,20.48
2023-02-05T03:13:58.849Z,15.90
2023-02-05T03:16:27.764Z,18.90
2023-02-05T03:18:55.972Z,17.63
2023-02-05T03:21:30.589Z,14.95
2023-02-05T03:23:57.117Z,19.25
2023-02-05T03:26:27.891Z,16.40
2023-02-05T03:28:56.236Z,16.90
2023-02-05T03:31:39.755Z,25.60
2023-02-05T03:34:40.697Z,13.43
2023-02-05T03:37:38.773Z,12.18
2023-02-05T03:40:26.753Z,15.43
2023-02-05T03:42:58.671Z,13.18
2023-02-05T03:45:32.277Z,15.90
2023-02-05T03:48:20.879Z,13.80
2023-02-05T03:50:47.272Z,10.35
2023-02-05T03:53:34.928Z,10.17
2023-02-05T03:56:07.351Z,11.32
2023-02-05T03:58:38.406Z,11.50
2023-02-05T04:01:07.527Z,11.57
2023-02-05T04:03:34.236Z,11.05
2023-02-05T04:06:00.759Z,10.80
2023-02-05T04:08:27.250Z,11.50
2023-02-05T04:10:53.682Z,12.52
2023-02-05T04:13:20.342Z,10.65
2023-02-05T04:15:49.270Z,9.77
2023-02-05T04:18:16.731Z,12.90
2023-02-05T04:20:43.729Z,13.32
2023-02-05T04:23:10.861Z,12.23
2023-02-05T04:25:38.547Z,12.93
2023-02-05T04:28:06.066Z,11.15
2023-02-05T04:30:33.497Z,11.60
2023-02-05T04:33:00.012Z,10.05
2023-02-05T04:35:26.677Z,16.30
2023-02-05T04:37:53.183Z,10.10
2023-02-05T04:40:19.694Z,13.15
2023-02-05T04:42:46.184Z,9.63
2023-02-05T04:45:12.880Z,7.72
2023-02-05T04:47:39.451Z,12.63
2023-02-05T04:50:06.495Z,12.02
2023-02-05T04:52:32.901Z,14.90
2023-02-05T04:54:59.374Z,10.10
2023-02-05T04:57:25.853Z,10.40
2023-02-05T04:59:52.297Z,10.43
2023-02-05T05:02:18.879Z,11.55
2023-02-05T05:04:45.343Z,9.70
2023-02-05T05:07:11.861Z,9.73
2023-02-05T05:09:38.353Z,8.82
2023-02-05T05:12:05.138Z,8.57
2023-02-05T05:14:31.610Z,7.28
2023-02-05T05:16:58.054Z,7.05
2023-02-05T05:19:40.485Z,9.13
2023-02-05T05:22:06.971Z,7.38
2023-02-05T05:24:33.404Z,6.18
2023-02-05T05:27:00.242Z,4.43
2023-02-05T05:29:26.777Z,4.18
2023-02-05T05:31:53.487Z,3.87
2023-02-05T05:34:20.853Z,5.60
2023-02-05T05:36:47.721Z,7.05
2023-02-05T05:39:34.432Z,3.10
2023-02-05T05:42:19.156Z,5.20
2023-02-05T05:47:53.649Z,6.60
2023-02-05T05:50:20.195Z,2.75
2023-02-05T05:52:46.647Z,5.03
2023-02-05T05:55:13.097Z,4.72
2023-02-05T05:57:39.606Z,2.47
2023-02-05T06:00:06.601Z,5.80
2023-02-05T06:02:33.029Z,5.13
2023-02-05T06:04:59.630Z,8.13
2023-02-05T06:07:59.393Z,10.30
2023-02-05T06:10:26.357Z,2.93
2023-02-05T06:12:53.221Z,6.90
2023-02-05T06:15:19.969Z,10.10
2023-02-05T06:17:46.454Z,3.67
2023-02-05T06:20:13.038Z,5.78
2023-02-05T06:22:40.492Z,4.67
2023-02-05T06:25:07.573Z,4.78
2023-02-05T06:27:49.759Z,4.43
2023-02-05T06:30:16.341Z,6.38
2023-02-05T06:32:42.887Z,2.58
2023-02-05T06:35:09.948Z,3.93
2023-02-05T06:37:47.064Z,5.05
2023-02-05T06:40:15.642Z,6.78
2023-02-05T06:42:42.447Z,4.97
2023-02-05T06:45:10.151Z,3.03
2023-02-05T06:47:37.922Z,9.93
2023-02-05T06:50:06.272Z,2.75
2023-02-05T06:52:32.944Z,4.75
2023-02-05T06:54:59.574Z,6.38
2023-02-05T06:57:26.054Z,3.50
2023-02-05T06:59:52.553Z,7.03
2023-02-05T07:02:19.033Z,3.15
2023-02-05T07:04:46.073Z,4.93
2023-02-05T07:07:13.673Z,4.13
2023-02-05T07:09:40.252Z,8.95
2023-02-05T07:12:07.092Z,3.60
2023-02-05T07:14:40.348Z,4.78
2023-02-05T07:17:07.796Z,6.32
2023-02-05T07:19:35.204Z,10.07
2023-02-05T07:22:01.887Z,8.73
2023-02-05T07:24:28.326Z,8.00
2023-02-05T07:26:54.802Z,7.07
2023-02-05T07:29:21.273Z,5.75
2023-02-05T07:31:50.592Z,10.02
2023-02-05T07:34:17.269Z,5.47
2023-02-05T07:36:43.734Z,14.90
2023-02-05T07:39:10.172Z,7.10
2023-02-05T07:41:36.872Z,14.50
2023-02-05T07:44:03.359Z,13.13
2023-02-05T07:46:30.328Z,5.60
2023-02-05T07:48:56.766Z,6.20
2023-02-05T07:51:25.368Z,12.15
2023-02-05T07:53:53.125Z,13.77
2023-02-05T07:56:22.433Z,10.45
2023-02-05T07:58:49.242Z,12.00
2023-02-05T08:01:15.840Z,14.67
2023-02-05T08:03:42.920Z,15.90
2023-02-05T08:06:14.344Z,17.85
2023-02-05T08:08:40.845Z,10.73
2023-02-05T08:11:15.981Z,13.70
2023-02-05T08:13:43.216Z,6.63
2023-02-05T08:16:11.418Z,16.42
2023-02-05T08:18:38.612Z,7.80
2023-02-05T08:21:08.312Z,10.75
2023-02-05T08:23:34.932Z,9.27
2023-02-05T08:26:01.400Z,10.40
2023-02-05T08:28:28.551Z,14.85
2023-02-05T08:30:56.477Z,15.68
2023-02-05T08:33:23.378Z,13.35
2023-02-05T08:35:49.861Z,11.77
2023-02-05T08:38:16.344Z,13.30
2023-02-05T08:40:42.907Z,17.95
2023-02-05T08:43:09.406Z,19.58
2023-02-05T08:45:36.466Z,15.00
2023-02-05T08:48:03.188Z,22.08
2023-02-05T08:50:29.715Z,10.10
2023-02-05T08:52:56.364Z,13.75
2023-02-05T08:55:22.777Z,15.55
2023-02-05T08:57:49.234Z,13.88
2023-02-05T09:00:16.022Z,22.83
2023-02-05T09:02:43.651Z,16.07
2023-02-05T09:05:10.349Z,17.83
2023-02-05T09:07:40.737Z,21.23
2023-02-05T09:10:14.089Z,19.27
2023-02-05T09:12:40.698Z,15.55
2023-02-05T09:15:08.084Z,13.27
2023-02-05T09:17:34.879Z,23.17
2023-02-05T09:20:01.359Z,26.40
2023-02-05T09:22:27.833Z,24.58
2023-02-05T09:24:54.292Z,20.38
2023-02-05T09:27:20.972Z,11.40
2023-02-05T09:29:47.428Z,23.13
2023-02-05T09:32:14.108Z,17.67
2023-02-05T09:34:40.684Z,15.27
2023-02-05T09:37:07.177Z,21.83
2023-02-05T09:42:57.355Z,20.92
2023-02-05T09:45:39.307Z,20.40
2023-02-05T09:48:38.584Z,21.77
2023-02-05T09:51:09.932Z,9.82
2023-02-05T09:53:42.859Z,23.40
2023-02-05T09:56:10.171Z,17.15
2023-02-05T09:58:42.926Z,22.80
2023-02-05T10:01:34.959Z,21.23
2023-02-05T10:04:04.052Z,24.17
2023-02-05T10:06:36.378Z,15.37
2023-02-05T10:09:26.059Z,11.90
2023-02-05T10:12:10.883Z,14.73
2023-02-05T10:14:58.369Z,9.93
2023-02-05T10:17:33.739Z,10.77
2023-02-05T10:20:10.076Z,17.20
2023-02-05T10:22:50.299Z,19.00
2023-02-05T10:25:32.848Z,25.92
2023-02-05T10:28:14.781Z,26.67
2023-02-05T10:30:53.852Z,14.00
2023-02-05T10:33:39.740Z,21.07
2023-02-05T10:36:08.287Z,16.75
2023-02-05T10:38:42.437Z,15.38
2023-02-05T10:41:44.860Z,27.15
2023-02-05T10:44:24.651Z,19.80
2023-02-05T10:46:55.313Z,16.63
2023-02-05T10:49:26.718Z,21.90
2023-02-05T10:51:53.354Z,20.52
2023-02-05T10:54:31.855Z,21.02
2023-02-05T10:56:58.831Z,14.15
2023-02-05T10:59:30.580Z,13.73
2023-02-05T11:02:02.960Z,21.85
2023-02-05T11:04:42.483Z,24.17
2023-02-05T11:07:17.742Z,15.68
2023-02-05T11:09:46.176Z,19.40
2023-02-05T11:12:32.549Z,25.27
2023-02-05T11:15:01.818Z,15.80
2023-02-05T11:17:33.102Z,26.17
2023-02-05T11:20:19.509Z,19.48
2023-02-05T11:22:46.329Z,32.30
2023-02-05T11:25:17.104Z,19.70
2023-02-05T11:27:57.525Z,17.60
2023-02-05T11:30:51.777Z,28.52
2023-02-05T11:33:27.536Z,20.80
2023-02-05T11:36:03.162Z,21.33
2023-02-05T11:38:50.615Z,22.83
2023-02-05T11:41:32.343Z,16.85
2023-02-05T11:44:01.243Z,17.20
2023-02-05T11:46:32.612Z,27.83
2023-02-05T11:49:01.684Z,14.73
2023-02-05T11:51:44.753Z,20.70
2023-02-05T11:54:31.563Z,17.88
2023-02-05T11:57:01.749Z,21.33
2023-02-05T11:59:28.231Z,25.65
2023-02-05T12:01:54.711Z,16.63
2023-02-05T12:04:21.901Z,12.53
2023-02-05T12:07:10.389Z,16.73
2023-02-05T12:09:36.915Z,19.83
2023-02-05T12:12:16.764Z,19.63
2023-02-05T12:14:47.737Z,11.63
2023-02-05T12:17:52.765Z,17.57
2023-02-05T12:21:01.230Z,10.68
2023-02-05T12:23:37.491Z,13.70
2023-02-05T12:26:22.021Z,24.17
2023-02-05T12:29:27.865Z,14.15
2023-02-05T12:32:23.589Z,19.13
2023-02-05T12:35:29.174Z,16.45
2023-02-05T12:38:21.191Z,14.38
2023-02-05T12:41:12.182Z,16.60
2023-02-05T12:43:42.044Z,23.05
2023-02-05T12:46:30.408Z,16.17
2023-02-05T12:49:26.174Z,11.43
2023-02-05T12:52:01.835Z,16.52
2023-02-05T12:54:28.382Z,14.93
2023-02-05T12:57:05.868Z,22.58
2023-02-05T12:59:42.143Z,14.13
2023-02-05T13:02:15.118Z,18.75
2023-02-05T13:05:12.255Z,20.65
2023-02-05T13:07:42.686Z,15.55
2023-02-05T13:10:24.423Z,16.08
2023-02-05T13:12:58.053Z,25.47
2023-02-05T13:15:30.919Z,23.20
2023-02-05T13:18:10.706Z,20.75
2023-02-05T13:21:22.376Z,17.77
2023-02-05T13:24:08.773Z,17.42
2023-02-05T13:26:58.821Z,18.70
2023-02-05T13:29:30.348Z,19.95
2023-02-05T13:32:14.762Z,28.67
2023-02-05T13:34:42.054Z,17.02
2023-02-05T13:37:25.568Z,21.83
2023-02-05T13:40:10.356Z,16.30
2023-02-05T13:42:46.652Z,15.85
2023-02-05T13:45:38.510Z,21.30
2023-02-05T13:48:27.141Z,12.90
2023-02-05T13:51:09.703Z,18.40
2023-02-05T13:53:49.754Z,18.13
2023-02-05T13:56:31.084Z,20.70
2023-02-05T13:59:06.036Z,18.65
2023-02-05T14:01:58.023Z,24.17
2023-02-05T14:04:36.264Z,15.75
2023-02-05T14:07:23.208Z,24.10
2023-02-05T14:09:56.350Z,12.98
2023-02-05T14:12:26.216Z,14.75
2023-02-05T14:15:17.719Z,14.05
2023-02-05T14:17:44.197Z,15.13
2023-02-05T14:20:26.077Z,17.77
2023-02-05T14:23:03.411Z,18.02
2023-02-05T14:25:36.594Z,23.55
2023-02-05T14:28:04.378Z,22.00
2023-02-05T14:30:30.895Z,17.05
2023-02-05T14:33:00.332Z,21.37
2023-02-05T14:35:32.844Z,17.15
2023-02-05T14:38:16.230Z,21.98
2023-02-05T14:40:42.908Z,16.23
2023-02-05T14:43:21.630Z,20.00
2023-02-05T14:45:51.217Z,18.13
2023-02-05T14:48:25.666Z,15.95
2023-02-05T14:51:08.488Z,17.77
2023-02-05T14:53:37.955Z,20.65
2023-02-05T14:56:05.326Z,23.95
2023-02-05T14:58:34.789Z,18.40
2023-02-05T15:01:29.139Z,18.15
2023-02-05T15:03:59.155Z,21.23
2023-02-05T15:06:32.116Z,14.98
2023-02-05T15:09:26.203Z,17.17
2023-02-05T15:12:07.600Z,19.80
2023-02-05T15:14:50.286Z,23.10
2023-02-05T15:17:16.662Z,21.08
2023-02-05T15:19:45.047Z,14.20
2023-02-05T15:22:25.516Z,16.05
2023-02-05T15:24:53.684Z,15.57
2023-02-05T15:27:30.259Z,22.00
2023-02-05T15:29:57.534Z,24.10
2023-02-05T15:32:25.875Z,22.77
2023-02-05T15:35:02.625Z,17.25
2023-02-05T15:37:36.175Z,19.40
2023-02-05T15:40:31.919Z,18.98
2023-02-05T15:42:59.449Z,20.63
2023-02-05T15:45:35.119Z,27.67
2023-02-05T15:48:06.182Z,25.52
2023-02-05T15:50:34.603Z,24.57
2023-02-05T15:53:01.859Z,18.63
2023-02-05T15:55:29.260Z,14.35
2023-02-05T15:58:02.419Z,33.67
2023-02-05T16:00:31.500Z,16.42
2023-02-05T16:03:02.495Z,26.50
2023-02-05T16:05:31.542Z,21.10
2023-02-05T16:07:59.048Z,19.42
2023-02-05T16:10:28.973Z,18.10
2023-02-05T16:13:14.292Z,18.20
2023-02-05T16:15:59.701Z,18.87
2023-02-05T16:18:36.906Z,23.17
2023-02-05T16:21:12.192Z,21.63
2023-02-05T16:23:48.110Z,21.08
2023-02-05T16:26:23.266Z,24.88
2023-02-05T16:28:58.088Z,32.00
2023-02-05T16:31:28.289Z,14.73
2023-02-05T16:34:22.498Z,36.40
2023-02-05T16:36:50.324Z,32.55
2023-02-05T16:39:32.142Z,17.92
2023-02-05T16:42:03.197Z,16.57
2023-02-05T16:44:36.307Z,18.25
2023-02-05T16:47:12.986Z,22.95
2023-02-05T16:49:40.589Z,21.20
2023-02-05T16:52:30.873Z,19.83
2023-02-05T16:54:59.161Z,15.17
2023-02-05T16:57:31.144Z,25.55
2023-02-05T17:00:04.333Z,18.60
2023-02-05T17:02:35.490Z,22.42
2023-02-05T17:05:06.025Z,26.10
2023-02-05T17:07:32.853Z,21.70
2023-02-05T17:10:25.780Z,34.35
2023-02-05T17:13:05.006Z,18.90
2023-02-05T17:15:40.194Z,17.15
2023-02-05T17:18:22.090Z,17.98
2023-02-05T17:20:48.861Z,24.63
2023-02-05T17:23:16.815Z,23.58
2023-02-05T17:25:54.950Z,27.80
2023-02-05T17:28:25.544Z,23.08
2023-02-05T17:30:54.178Z,23.83
2023-02-05T17:33:26.446Z,18.17
2023-02-05T17:35:52.919Z,23.08
2023-02-05T17:38:23.589Z,32.38
2023-02-05T17:40:50.468Z,32.63
2023-02-05T17:43:16.911Z,39.67
2023-02-05T17:45:44.324Z,31.43
2023-02-05T17:48:11.593Z,29.15
2023-02-05T17:50:38.402Z,25.13
2023-02-05T17:53:05.051Z,24.38
2023-02-05T17:55:31.741Z,22.58
2023-02-05T17:57:58.144Z,18.70
2023-02-05T18:00:31.766Z,23.52
2023-02-05T18:02:58.565Z,20.75
2023-02-05T18:05:25.127Z,22.45
2023-02-05T18:07:54.663Z,17.55
2023-02-05T18:10:34.361Z,19.53
2023-02-05T18:13:01.002Z,21.77
2023-02-05T18:15:28.367Z,18.02
2023-02-05T18:17:54.811Z,25.27
2023-02-05T18:20:21.609Z,23.58
2023-02-05T18:22:49.193Z,15.17
2023-02-05T18:25:16.008Z,22.92
2023-02-05T18:27:42.613Z,18.27
2023-02-05T18:30:09.618Z,16.73
2023-02-05T18:32:36.106Z,17.73
2023-02-05T18:35:02.678Z,30.77
2023-02-05T18:37:29.308Z,20.80
2023-02-05T18:39:55.783Z,25.65
2023-02-05T18:42:23.137Z,25.67
2023-02-05T18:44:49.678Z,17.65
2023-02-05T18:47:16.141Z,13.80
2023-02-05T18:49:42.591Z,13.27
2023-02-05T18:52:10.833Z,31.38
2023-02-05T18:54:37.298Z,22.60
2023-02-05T18:57:03.757Z,24.15
2023-02-05T18:59:30.190Z,22.37
2023-02-05T19:01:56.698Z,18.20
2023-02-05T19:04:24.913Z,18.38
2023-02-05T19:06:53.680Z,20.45
2023-02-05T19:09:21.991Z,15.35
2023-02-05T19:11:49.382Z,17.23
2023-02-05T19:14:17.976Z,32.33
2023-02-05T19:16:45.525Z,18.13
2023-02-05T19:19:21.018Z,19.15
2023-02-05T19:21:51.566Z,31.20
2023-02-05T19:24:18.851Z,22.53
2023-02-05T19:26:45.476Z,18.77
2023-02-05T19:29:15.389Z,15.82
2023-02-05T19:31:42.765Z,25.67
2023-02-05T19:34:09.618Z,21.50
2023-02-05T19:36:36.867Z,23.03
2023-02-05T19:39:05.864Z,17.95
2023-02-05T19:41:34.118Z,23.95
2023-02-05T19:44:04.546Z,14.30
2023-02-05T19:46:34.996Z,24.02
2023-02-05T19:49:04.887Z,32.97
2023-02-05T19:51:32.568Z,18.10
2023-02-05T19:54:02.980Z,21.60
2023-02-05T19:56:30.527Z,17.52
2023-02-05T19:58:57.026Z,26.10
2023-02-05T20:01:29.228Z,17.27
2023-02-05T20:04:01.563Z,25.63
2023-02-05T20:06:29.899Z,21.30
2023-02-05T20:08:56.656Z,20.92
2023-02-05T20:11:23.294Z,18.77
2023-02-05T20:13:50.251Z,14.87
2023-02-05T20:16:19.204Z,26.67
2023-02-05T20:18:47.179Z,28.60
2023-02-05T20:21:18.757Z,22.10
2023-02-05T20:23:46.565Z,16.58
2023-02-05T20:26:14.409Z,14.90
2023-02-05T20:29:00.646Z,22.50
2023-02-05T20:31:34.768Z,17.63
2023-02-05T20:34:03.302Z,19.00
2023-02-05T20:36:31.504Z,18.38
2023-02-05T20:38:59.624Z,26.97
2023-02-05T20:41:26.458Z,25.58
2023-02-05T20:43:53.344Z,17.55
2023-02-05T20:46:20.794Z,19.80
2023-02-05T20:48:48.451Z,20.52
2023-02-05T20:51:17.923Z,21.47
2023-02-05T20:53:45.475Z,17.30
2023-02-05T20:56:15.019Z,19.38
2023-02-05T20:58:41.911Z,18.67
2023-02-05T21:01:19.081Z,22.25
2023-02-05T21:03:48.029Z,14.53
2023-02-05T21:06:15.197Z,21.98
2023-02-05T21:08:44.301Z,31.33
2023-02-05T21:11:13.831Z,29.45
2023-02-05T21:13:40.998Z,19.33
2023-02-05T21:16:08.891Z,15.10
2023-02-05T21:18:35.861Z,16.77
2023-02-05T21:21:17.399Z,18.17
2023-02-05T21:23:45.958Z,27.35
2023-02-05T21:26:24.748Z,25.42
2023-02-05T21:28:55.954Z,13.67
2023-02-05T21:31:23.666Z,19.27
2023-02-05T21:33:50.144Z,14.25
2023-02-05T21:36:19.128Z,22.23
2023-02-05T21:38:45.792Z,30.33
2023-02-05T21:41:14.794Z,19.10
2023-02-05T21:43:41.885Z,18.98
2023-02-05T21:46:12.996Z,16.27
2023-02-05T21:48:40.087Z,21.00
2023-02-05T21:51:12.887Z,27.30
2023-02-05T21:53:39.865Z,20.20
2023-02-05T21:56:08.791Z,12.98
2023-02-05T21:58:37.026Z,18.23
2023-02-05T22:01:15.847Z,15.13
2023-02-05T22:03:43.816Z,16.17
2023-02-05T22:06:10.278Z,22.50
2023-02-05T22:08:38.482Z,31.50
2023-02-05T22:11:10.394Z,27.30
2023-02-05T22:13:45.629Z,28.50
2023-02-05T22:16:14.925Z,28.40
2023-02-05T22:18:42.018Z,18.20
2023-02-05T22:21:17.686Z,24.77
2023-02-05T22:23:49.042Z,24.48
2023-02-05T22:26:17.749Z,18.73
2023-02-05T22:28:44.529Z,20.08
2023-02-05T22:31:14.338Z,28.63
2023-02-05T22:33:42.395Z,23.88
2023-02-05T22:36:11.138Z,31.38
2023-02-05T22:38:39.910Z,27.05
2023-02-05T22:41:11.525Z,20.65
2023-02-05T22:43:38.397Z,24.17
2023-02-05T22:46:13.675Z,33.65
2023-02-05T22:48:42.304Z,20.33
2023-02-05T22:51:11.260Z,22.65
2023-02-05T22:53:37.664Z,18.75
2023-02-05T22:56:07.109Z,17.93
2023-02-05T22:58:33.671Z,17.90
2023-02-05T23:01:10.857Z,18.00
2023-02-05T23:03:38.327Z,13.68
2023-02-05T23:06:13.486Z,20.08
2023-02-05T23:08:40.903Z,20.37
2023-02-05T23:11:10.323Z,14.73
2023-02-05T23:13:36.903Z,24.63
2023-02-05T23:16:12.529Z,12.05
2023-02-05T23:18:40.479Z,20.05
2023-02-05T23:21:16.097Z,26.20
2023-02-05T23:23:43.053Z,13.80
2023-02-05T23:26:12.779Z,22.35
2023-02-05T23:28:39.401Z,15.77
2023-02-05T23:31:06.553Z,20.70
2023-02-05T23:33:33.694Z,16.73
2023-02-05T23:36:00.444Z,16.50
2023-02-05T23:38:27.490Z,19.48
2023-02-05T23:40:55.628Z,20.95
2023-02-05T23:43:22.696Z,18.80
2023-02-05T23:45:49.925Z,21.67
2023-02-05T23:48:16.474Z,18.42
2023-02-05T23:50:43.784Z,23.63
2023-02-05T23:53:13.437Z,21.38
2023-02-05T23:55:41.633Z,15.82
2023-02-05T23:58:09.120Z,14.50
